sensor_id;sensor_type;location;lat;lon;timestamp;pressure;altitude;pressure_sealevel;temperature;humidity
13080;BME280;6606;49.154;9.280;2023-04-23T00:02:18;98961.91;;;13.80;100.00
13080;BME280;6606;49.154;9.280;2023-04-23T00:05:05;98962.88;;;13.79;100.00
13080;BME280;6606;49.154;9.280;2023-04-23T00:07:48;98970.91;;;13.90;100.00
13080;BME280;6606;49.154;9.280;2023-04-23T00:10:30;98969.84;;;13.93;100.00
13080;BME280;6606;49.154;9.280;2023-04-23T00:13:13;98960.53;;;13.98;100.00
13080;BME280;6606;49.154;9.280;2023-04-23T00:15:55;98963.72;;;13.79;100.00
13080;BME280;6606;49.154;9.280;2023-04-23T00:18:38;98961.09;;;13.91;100.00
13080;BME280;6606;49.154;9.280;2023-04-23T00:21:22;98961.69;;;13.94;100.00
13080;BME280;6606;49.154;9.280;2023-04-23T00:24:05;98970.94;;;14.01;100.00
13080;BME280;6606;49.154;9.280;2023-04-23T00:26:47;98975.28;;;14.02;100.00
13080;BME280;6606;49.154;9.280;2023-04-23T00:29:29;98970.19;;;13.99;100.00
13080;BME280;6606;49.154;9.280;2023-04-23T00:32:11;98974.88;;;13.84;100.00
13080;BME280;6606;49.154;9.280;2023-04-23T00:34:54;98974.88;;;13.84;100.00
13080;BME280;6606;49.154;9.280;2023-04-23T00:37:38;98975.75;;;13.96;100.00
13080;BME280;6606;49.154;9.280;2023-04-23T00:40:20;98988.63;;;14.02;100.00
13080;BME280;6606;49.154;9.280;2023-04-23T00:43:03;98997.31;;;13.93;100.00
13080;BME280;6606;49.154;9.280;2023-04-23T00:45:46;98997.31;;;13.93;100.00
13080;BME280;6606;49.154;9.280;2023-04-23T00:48:29;98997.56;;;13.90;100.00
13080;BME280;6606;49.154;9.280;2023-04-23T00:51:12;98998.41;;;13.91;100.00
13080;BME280;6606;49.154;9.280;2023-04-23T00:53:58;99010.13;;;13.88;100.00
13080;BME280;6606;49.154;9.280;2023-04-23T00:56:40;99001.66;;;13.94;100.00
13080;BME280;6606;49.154;9.280;2023-04-23T00:59:21;99001.44;;;13.73;100.00
13080;BME280;6606;49.154;9.280;2023-04-23T01:02:03;99005.41;;;13.68;100.00
13080;BME280;6606;49.154;9.280;2023-04-23T01:04:47;99006.41;;;13.67;100.00
13080;BME280;6606;49.154;9.280;2023-04-23T01:07:33;99008.34;;;13.52;100.00
13080;BME280;6606;49.154;9.280;2023-04-23T01:10:17;99003.16;;;13.50;100.00
13080;BME280;6606;49.154;9.280;2023-04-23T01:12:59;99012.31;;;13.46;100.00
13080;BME280;6606;49.154;9.280;2023-04-23T01:15:44;99015.66;;;13.37;100.00
13080;BME280;6606;49.154;9.280;2023-04-23T01:18:27;99015.22;;;13.43;100.00
13080;BME280;6606;49.154;9.280;2023-04-23T01:21:10;99025.03;;;13.30;100.00
13080;BME280;6606;49.154;9.280;2023-04-23T01:23:55;99025.47;;;13.24;100.00
13080;BME280;6606;49.154;9.280;2023-04-23T01:26:39;99021.31;;;13.19;100.00
13080;BME280;6606;49.154;9.280;2023-04-23T01:29:22;99020.69;;;13.29;100.00
13080;BME280;6606;49.154;9.280;2023-04-23T01:32:06;99033.34;;;13.12;100.00
13080;BME280;6606;49.154;9.280;2023-04-23T01:34:53;99033.56;;;13.09;100.00
13080;BME280;6606;49.154;9.280;2023-04-23T01:37:37;99030.38;;;13.04;100.00
13080;BME280;6606;49.154;9.280;2023-04-23T01:40:21;99031.03;;;12.95;100.00
13080;BME280;6606;49.154;9.280;2023-04-23T01:43:03;99029.84;;;12.99;100.00
13080;BME280;6606;49.154;9.280;2023-04-23T01:45:48;99027.63;;;12.93;100.00
13080;BME280;6606;49.154;9.280;2023-04-23T01:48:30;99023.47;;;13.02;100.00
13080;BME280;6606;49.154;9.280;2023-04-23T01:51:13;99027.72;;;13.04;100.00
13080;BME280;6606;49.154;9.280;2023-04-23T01:53:55;99030.19;;;12.94;100.00
13080;BME280;6606;49.154;9.280;2023-04-23T01:56:39;99029.13;;;12.97;100.00
13080;BME280;6606;49.154;9.280;2023-04-23T01:59:22;99025.94;;;12.92;100.00
13080;BME280;6606;49.154;9.280;2023-04-23T02:02:03;99036.13;;;12.98;100.00
13080;BME280;6606;49.154;9.280;2023-04-23T02:04:53;99037.97;;;12.85;100.00
13080;BME280;6606;49.154;9.280;2023-04-23T02:07:35;99033.16;;;12.90;100.00
13080;BME280;6606;49.154;9.280;2023-04-23T02:10:19;99040.00;;;12.94;100.00
13080;BME280;6606;49.154;9.280;2023-04-23T02:13:04;99047.63;;;12.86;100.00
13080;BME280;6606;49.154;9.280;2023-04-23T02:15:46;99046.25;;;12.93;100.00
13080;BME280;6606;49.154;9.280;2023-04-23T02:18:28;99036.03;;;13.00;100.00
13080;BME280;6606;49.154;9.280;2023-04-23T02:21:10;99046.03;;;12.83;100.00
13080;BME280;6606;49.154;9.280;2023-04-23T02:23:52;99054.97;;;12.95;100.00
13080;BME280;6606;49.154;9.280;2023-04-23T02:26:34;99044.44;;;12.93;100.00
13080;BME280;6606;49.154;9.280;2023-04-23T02:29:18;99041.78;;;12.81;100.00
13080;BME280;6606;49.154;9.280;2023-04-23T02:32:00;99047.84;;;12.83;100.00
13080;BME280;6606;49.154;9.280;2023-04-23T02:34:42;99054.88;;;12.84;100.00
13080;BME280;6606;49.154;9.280;2023-04-23T02:37:24;99045.72;;;12.88;100.00
13080;BME280;6606;49.154;9.280;2023-04-23T02:40:08;99047.22;;;12.92;100.00
13080;BME280;6606;49.154;9.280;2023-04-23T02:42:51;99048.06;;;12.92;100.00
13080;BME280;6606;49.154;9.280;2023-04-23T02:45:35;99046.78;;;12.98;100.00
13080;BME280;6606;49.154;9.280;2023-04-23T02:48:17;99050.94;;;12.89;100.00
13080;BME280;6606;49.154;9.280;2023-04-23T02:51:00;99050.41;;;12.97;100.00
13080;BME280;6606;49.154;9.280;2023-04-23T02:53:43;99051.69;;;12.79;100.00
13080;BME280;6606;49.154;9.280;2023-04-23T02:56:25;99060.41;;;12.93;100.00
13080;BME280;6606;49.154;9.280;2023-04-23T02:59:09;99059.53;;;13.06;100.00
13080;BME280;6606;49.154;9.280;2023-04-23T03:01:54;99047.84;;;13.08;100.00
13080;BME280;6606;49.154;9.280;2023-04-23T03:04:36;99053.59;;;13.02;100.00
13080;BME280;6606;49.154;9.280;2023-04-23T03:07:18;99052.09;;;12.98;100.00
13080;BME280;6606;49.154;9.280;2023-04-23T03:10:01;99043.59;;;13.06;100.00
13080;BME280;6606;49.154;9.280;2023-04-23T03:12:43;99041.75;;;13.06;100.00
13080;BME280;6606;49.154;9.280;2023-04-23T03:15:25;99048.59;;;12.97;100.00
13080;BME280;6606;49.154;9.280;2023-04-23T03:18:09;99048.69;;;12.96;100.00
13080;BME280;6606;49.154;9.280;2023-04-23T03:20:52;99040.63;;;12.97;100.00
13080;BME280;6606;49.154;9.280;2023-04-23T03:23:35;99039.56;;;13.00;100.00
13080;BME280;6606;49.154;9.280;2023-04-23T03:26:17;99041.56;;;12.96;100.00
13080;BME280;6606;49.154;9.280;2023-04-23T03:28:58;99030.19;;;12.94;100.00
13080;BME280;6606;49.154;9.280;2023-04-23T03:31:58;99027.41;;;12.96;100.00
13080;BME280;6606;49.154;9.280;2023-04-23T03:34:41;99027.41;;;12.96;100.00
13080;BME280;6606;49.154;9.280;2023-04-23T03:37:24;99028.91;;;13.00;100.00
13080;BME280;6606;49.154;9.280;2023-04-23T03:40:07;99028.47;;;13.06;100.00
13080;BME280;6606;49.154;9.280;2023-04-23T03:42:52;99034.13;;;12.89;100.00
13080;BME280;6606;49.154;9.280;2023-04-23T03:45:42;99029.97;;;12.97;100.00
13080;BME280;6606;49.154;9.280;2023-04-23T03:48:24;99034.22;;;13.00;100.00
13080;BME280;6606;49.154;9.280;2023-04-23T03:51:09;99046.69;;;13.00;100.00
13080;BME280;6606;49.154;9.280;2023-04-23T03:53:56;99033.91;;;13.05;100.00
13080;BME280;6606;49.154;9.280;2023-04-23T03:56:46;99033.78;;;13.19;100.00
13080;BME280;6606;49.154;9.280;2023-04-23T03:59:32;99033.78;;;13.19;100.00
13080;BME280;6606;49.154;9.280;2023-04-23T04:02:14;99038.66;;;13.12;100.00
13080;BME280;6606;49.154;9.280;2023-04-23T04:04:55;99044.44;;;13.06;100.00
13080;BME280;6606;49.154;9.280;2023-04-23T04:07:39;99038.66;;;13.12;100.00
13080;BME280;6606;49.154;9.280;2023-04-23T04:10:21;99039.09;;;13.06;100.00
13080;BME280;6606;49.154;9.280;2023-04-23T04:13:03;99043.91;;;13.01;100.00
13080;BME280;6606;49.154;9.280;2023-04-23T04:15:46;99045.41;;;13.05;100.00
13080;BME280;6606;49.154;9.280;2023-04-23T04:18:28;99039.41;;;13.02;100.00
13080;BME280;6606;49.154;9.280;2023-04-23T04:21:10;99046.03;;;12.96;100.00
13080;BME280;6606;49.154;9.280;2023-04-23T04:23:54;99041.00;;;13.04;100.00
13080;BME280;6606;49.154;9.280;2023-04-23T04:26:36;99045.41;;;13.05;100.00
13080;BME280;6606;49.154;9.280;2023-04-23T04:29:19;99041.31;;;13.12;100.00
13080;BME280;6606;49.154;9.280;2023-04-23T04:32:03;99047.00;;;13.08;100.00
13080;BME280;6606;49.154;9.280;2023-04-23T04:34:45;99038.03;;;13.09;100.00
13080;BME280;6606;49.154;9.280;2023-04-23T04:37:29;99045.63;;;13.02;100.00
13080;BME280;6606;49.154;9.280;2023-04-23T04:40:12;99051.25;;;13.10;100.00
13080;BME280;6606;49.154;9.280;2023-04-23T04:42:55;99063.81;;;13.08;100.00
13080;BME280;6606;49.154;9.280;2023-04-23T04:45:39;99071.91;;;12.94;100.00
13080;BME280;6606;49.154;9.280;2023-04-23T04:48:25;99073.16;;;13.01;100.00
13080;BME280;6606;49.154;9.280;2023-04-23T04:51:09;99071.91;;;12.94;100.00
13080;BME280;6606;49.154;9.280;2023-04-23T04:53:51;99072.97;;;12.79;100.00
13080;BME280;6606;49.154;9.280;2023-04-23T04:56:35;99077.84;;;12.72;100.00
13080;BME280;6606;49.154;9.280;2023-04-23T04:59:17;99074.88;;;12.76;100.00
13080;BME280;6606;49.154;9.280;2023-04-23T05:01:59;99074.97;;;12.88;100.00
13080;BME280;6606;49.154;9.280;2023-04-23T05:04:41;99078.91;;;12.95;100.00
13080;BME280;6606;49.154;9.280;2023-04-23T05:07:24;99080.19;;;13.02;100.00
13080;BME280;6606;49.154;9.280;2023-04-23T05:10:07;99082.34;;;12.97;100.00
13080;BME280;6606;49.154;9.280;2023-04-23T05:12:50;99073.06;;;13.03;100.00
13080;BME280;6606;49.154;9.280;2023-04-23T05:15:32;99071.13;;;13.17;100.00
13080;BME280;6606;49.154;9.280;2023-04-23T05:18:14;99071.25;;;13.29;100.00
13080;BME280;6606;49.154;9.280;2023-04-23T05:20:58;99075.00;;;13.26;100.00
13080;BME280;6606;49.154;9.280;2023-04-23T05:23:41;99085.16;;;13.45;100.00
13080;BME280;6606;49.154;9.280;2023-04-23T05:26:23;99082.06;;;13.51;100.00
13080;BME280;6606;49.154;9.280;2023-04-23T05:29:06;99074.59;;;13.56;100.00
13080;BME280;6606;49.154;9.280;2023-04-23T05:31:48;99077.03;;;13.59;100.00
13080;BME280;6606;49.154;9.280;2023-04-23T05:34:30;99066.66;;;13.68;100.00
13080;BME280;6606;49.154;9.280;2023-04-23T05:37:12;99077.56;;;13.64;100.00
13080;BME280;6606;49.154;9.280;2023-04-23T05:39:54;99074.22;;;13.74;100.00
13080;BME280;6606;49.154;9.280;2023-04-23T05:42:36;99074.22;;;13.74;100.00
13080;BME280;6606;49.154;9.280;2023-04-23T05:45:20;99073.16;;;13.76;100.00
13080;BME280;6606;49.154;9.280;2023-04-23T05:48:01;99074.53;;;13.82;100.00
13080;BME280;6606;49.154;9.280;2023-04-23T05:50:43;99080.22;;;13.89;100.00
13080;BME280;6606;49.154;9.280;2023-04-23T05:53:26;99086.75;;;13.84;100.00
13080;BME280;6606;49.154;9.280;2023-04-23T05:56:08;99080.66;;;13.95;100.00
13080;BME280;6606;49.154;9.280;2023-04-23T05:58:50;99079.00;;;14.05;100.00
13080;BME280;6606;49.154;9.280;2023-04-23T06:01:33;99083.34;;;14.06;100.00
13080;BME280;6606;49.154;9.280;2023-04-23T06:04:15;99087.66;;;13.96;100.00
13080;BME280;6606;49.154;9.280;2023-04-23T06:06:57;99079.94;;;14.04;100.00
13080;BME280;6606;49.154;9.280;2023-04-23T06:09:39;99085.50;;;14.01;100.00
13080;BME280;6606;49.154;9.280;2023-04-23T06:12:20;99083.59;;;14.03;100.00
13080;BME280;6606;49.154;9.280;2023-04-23T06:15:05;99085.69;;;14.46;100.00
13080;BME280;6606;49.154;9.280;2023-04-23T06:17:49;99089.41;;;14.57;100.00
13080;BME280;6606;49.154;9.280;2023-04-23T06:20:30;99083.16;;;14.80;100.00
13080;BME280;6606;49.154;9.280;2023-04-23T06:23:12;99080.47;;;14.69;100.00
13080;BME280;6606;49.154;9.280;2023-04-23T06:25:54;99087.00;;;14.65;100.00
13080;BME280;6606;49.154;9.280;2023-04-23T06:28:36;99094.50;;;14.60;100.00
13080;BME280;6606;49.154;9.280;2023-04-23T06:31:48;99087.19;;;14.50;100.00
13080;BME280;6606;49.154;9.280;2023-04-23T06:34:31;99090.78;;;14.49;100.00
13080;BME280;6606;49.154;9.280;2023-04-23T06:37:12;99090.09;;;14.47;100.00
13080;BME280;6606;49.154;9.280;2023-04-23T06:39:54;99085.03;;;14.56;100.00
13080;BME280;6606;49.154;9.280;2023-04-23T06:42:36;99087.97;;;14.64;100.00
13080;BME280;6606;49.154;9.280;2023-04-23T06:45:41;99076.97;;;14.80;100.00
13080;BME280;6606;49.154;9.280;2023-04-23T06:48:23;99081.91;;;14.73;100.00
13080;BME280;6606;49.154;9.280;2023-04-23T06:51:07;99070.91;;;14.78;100.00
13080;BME280;6606;49.154;9.280;2023-04-23T06:53:49;99075.16;;;14.91;100.00
13080;BME280;6606;49.154;9.280;2023-04-23T06:56:31;99079.25;;;14.84;100.00
13080;BME280;6606;49.154;9.280;2023-04-23T06:59:13;99070.81;;;14.79;100.00
13080;BME280;6606;49.154;9.280;2023-04-23T07:02:01;99077.38;;;15.09;100.00
13080;BME280;6606;49.154;9.280;2023-04-23T07:04:43;99076.88;;;15.15;100.00
13080;BME280;6606;49.154;9.280;2023-04-23T07:07:26;99064.13;;;15.07;100.00
13080;BME280;6606;49.154;9.280;2023-04-23T07:10:10;99068.38;;;15.55;100.00
13080;BME280;6606;49.154;9.280;2023-04-23T07:12:52;99064.41;;;16.04;100.00
13080;BME280;6606;49.154;9.280;2023-04-23T07:15:34;99057.13;;;16.27;100.00
13080;BME280;6606;49.154;9.280;2023-04-23T07:18:17;99041.75;;;19.92;100.00
13080;BME280;6606;49.154;9.280;2023-04-23T07:20:59;99054.28;;;21.25;100.00
13080;BME280;6606;49.154;9.280;2023-04-23T07:23:42;99061.38;;;21.34;100.00
13080;BME280;6606;49.154;9.280;2023-04-23T07:26:31;99055.97;;;23.01;100.00
13080;BME280;6606;49.154;9.280;2023-04-23T07:29:13;99048.56;;;22.21;100.00
13080;BME280;6606;49.154;9.280;2023-04-23T07:31:55;99047.56;;;21.29;100.00
13080;BME280;6606;49.154;9.280;2023-04-23T07:34:37;99047.47;;;21.13;100.00
13080;BME280;6606;49.154;9.280;2023-04-23T07:37:19;99049.44;;;21.71;100.00
13080;BME280;6606;49.154;9.280;2023-04-23T07:40:04;99039.81;;;24.57;92.46
13080;BME280;6606;49.154;9.280;2023-04-23T07:42:47;99038.94;;;22.76;100.00
13080;BME280;6606;49.154;9.280;2023-04-23T07:45:30;99042.22;;;21.88;100.00
13080;BME280;6606;49.154;9.280;2023-04-23T07:48:12;99038.84;;;20.39;100.00
13080;BME280;6606;49.154;9.280;2023-04-23T07:50:53;99032.78;;;19.28;100.00
13080;BME280;6606;49.154;9.280;2023-04-23T07:53:36;99030.69;;;18.65;100.00
13080;BME280;6606;49.154;9.280;2023-04-23T07:56:19;99047.53;;;17.49;100.00
13080;BME280;6606;49.154;9.280;2023-04-23T07:59:02;99036.63;;;17.31;100.00
13080;BME280;6606;49.154;9.280;2023-04-23T08:01:44;99032.88;;;17.53;100.00
13080;BME280;6606;49.154;9.280;2023-04-23T08:04:26;99041.06;;;17.51;100.00
13080;BME280;6606;49.154;9.280;2023-04-23T08:07:10;99042.88;;;18.20;100.00
13080;BME280;6606;49.154;9.280;2023-04-23T08:09:52;99033.31;;;18.94;100.00
13080;BME280;6606;49.154;9.280;2023-04-23T08:12:41;99034.97;;;19.05;100.00
13080;BME280;6606;49.154;9.280;2023-04-23T08:15:24;99022.72;;;19.58;100.00
13080;BME280;6606;49.154;9.280;2023-04-23T08:18:06;99020.13;;;19.10;100.00
13080;BME280;6606;49.154;9.280;2023-04-23T08:20:48;99022.50;;;18.66;100.00
13080;BME280;6606;49.154;9.280;2023-04-23T08:23:30;99011.50;;;18.50;100.00
13080;BME280;6606;49.154;9.280;2023-04-23T08:26:11;99006.63;;;18.73;100.00
13080;BME280;6606;49.154;9.280;2023-04-23T08:28:55;99015.41;;;18.85;100.00
13080;BME280;6606;49.154;9.280;2023-04-23T08:31:36;99011.94;;;18.45;100.00
13080;BME280;6606;49.154;9.280;2023-04-23T08:34:18;99005.47;;;18.29;100.00
13080;BME280;6606;49.154;9.280;2023-04-23T08:37:00;99002.78;;;18.19;100.00
13080;BME280;6606;49.154;9.280;2023-04-23T08:39:41;99003.78;;;17.98;100.00
13080;BME280;6606;49.154;9.280;2023-04-23T08:42:31;98988.00;;;18.81;100.00
13080;BME280;6606;49.154;9.280;2023-04-23T08:45:22;98995.41;;;19.35;100.00
13080;BME280;6606;49.154;9.280;2023-04-23T08:48:04;98992.69;;;19.62;100.00
13080;BME280;6606;49.154;9.280;2023-04-23T08:50:47;99004.16;;;19.37;100.00
13080;BME280;6606;49.154;9.280;2023-04-23T08:53:29;98996.59;;;19.22;100.00
13080;BME280;6606;49.154;9.280;2023-04-23T08:56:12;98995.97;;;18.54;100.00
13080;BME280;6606;49.154;9.280;2023-04-23T08:58:55;98990.72;;;17.65;100.00
13080;BME280;6606;49.154;9.280;2023-04-23T09:01:38;98997.41;;;17.80;100.00
13080;BME280;6606;49.154;9.280;2023-04-23T09:04:21;98994.84;;;17.69;100.00
13080;BME280;6606;49.154;9.280;2023-04-23T09:07:05;98992.75;;;17.82;100.00
13080;BME280;6606;49.154;9.280;2023-04-23T09:09:50;98996.44;;;17.81;100.00
13080;BME280;6606;49.154;9.280;2023-04-23T09:12:34;98987.84;;;17.87;100.00
13080;BME280;6606;49.154;9.280;2023-04-23T09:15:16;98985.22;;;18.54;100.00
13080;BME280;6606;49.154;9.280;2023-04-23T09:17:59;98977.06;;;18.45;100.00
13080;BME280;6606;49.154;9.280;2023-04-23T09:20:43;98978.06;;;18.35;100.00
13080;BME280;6606;49.154;9.280;2023-04-23T09:23:25;98969.19;;;18.15;100.00
13080;BME280;6606;49.154;9.280;2023-04-23T09:26:07;98969.84;;;17.78;100.00
13080;BME280;6606;49.154;9.280;2023-04-23T09:28:49;98971.00;;;17.75;100.00
13080;BME280;6606;49.154;9.280;2023-04-23T09:31:31;98968.03;;;17.69;100.00
13080;BME280;6606;49.154;9.280;2023-04-23T09:34:16;98960.09;;;17.28;100.00
13080;BME280;6606;49.154;9.280;2023-04-23T09:36:58;98963.03;;;17.25;100.00
13080;BME280;6606;49.154;9.280;2023-04-23T09:39:40;98954.53;;;17.80;100.00
13080;BME280;6606;49.154;9.280;2023-04-23T09:42:23;98936.88;;;18.16;100.00
13080;BME280;6606;49.154;9.280;2023-04-23T09:45:06;98940.06;;;18.39;100.00
13080;BME280;6606;49.154;9.280;2023-04-23T09:47:49;98930.28;;;18.95;100.00
13080;BME280;6606;49.154;9.280;2023-04-23T09:50:36;98938.69;;;18.82;100.00
13080;BME280;6606;49.154;9.280;2023-04-23T09:53:18;98934.34;;;18.62;100.00
13080;BME280;6606;49.154;9.280;2023-04-23T09:56:00;98930.00;;;18.98;100.00
13080;BME280;6606;49.154;9.280;2023-04-23T09:58:44;98924.78;;;19.60;100.00
13080;BME280;6606;49.154;9.280;2023-04-23T10:01:29;98921.78;;;19.63;100.00
13080;BME280;6606;49.154;9.280;2023-04-23T10:04:11;98920.59;;;19.75;100.00
13080;BME280;6606;49.154;9.280;2023-04-23T10:06:54;98919.31;;;19.80;100.00
13080;BME280;6606;49.154;9.280;2023-04-23T10:09:36;98918.72;;;19.40;100.00
13080;BME280;6606;49.154;9.280;2023-04-23T10:12:19;98914.13;;;19.50;100.00
13080;BME280;6606;49.154;9.280;2023-04-23T10:15:02;98920.75;;;19.28;100.00
13080;BME280;6606;49.154;9.280;2023-04-23T10:17:47;98916.00;;;19.22;100.00
13080;BME280;6606;49.154;9.280;2023-04-23T10:20:30;98915.22;;;19.75;100.00
13080;BME280;6606;49.154;9.280;2023-04-23T10:23:18;98911.03;;;20.43;100.00
13080;BME280;6606;49.154;9.280;2023-04-23T10:26:02;98909.00;;;21.14;100.00
13080;BME280;6606;49.154;9.280;2023-04-23T10:28:46;98909.94;;;20.10;100.00
13080;BME280;6606;49.154;9.280;2023-04-23T10:31:31;98891.53;;;20.23;100.00
13080;BME280;6606;49.154;9.280;2023-04-23T10:34:14;98897.63;;;20.51;100.00
13080;BME280;6606;49.154;9.280;2023-04-23T10:36:57;98892.34;;;20.41;100.00
13080;BME280;6606;49.154;9.280;2023-04-23T10:39:43;98880.63;;;20.25;100.00
13080;BME280;6606;49.154;9.280;2023-04-23T10:42:25;98886.91;;;20.59;100.00
13080;BME280;6606;49.154;9.280;2023-04-23T10:45:11;98879.03;;;20.40;100.00
13080;BME280;6606;49.154;9.280;2023-04-23T10:47:54;98872.28;;;20.10;100.00
13080;BME280;6606;49.154;9.280;2023-04-23T10:50:36;98874.66;;;20.65;99.42
13080;BME280;6606;49.154;9.280;2023-04-23T10:53:19;98877.63;;;20.88;90.97
13080;BME280;6606;49.154;9.280;2023-04-23T10:56:06;98866.56;;;20.65;92.34
13080;BME280;6606;49.154;9.280;2023-04-23T10:58:50;98865.63;;;21.33;88.87
13080;BME280;6606;49.154;9.280;2023-04-23T11:01:31;98853.19;;;21.89;82.43
13080;BME280;6606;49.154;9.280;2023-04-23T11:04:21;98846.78;;;21.90;76.46
13080;BME280;6606;49.154;9.280;2023-04-23T11:07:05;98842.03;;;22.01;78.38
13080;BME280;6606;49.154;9.280;2023-04-23T11:09:48;98844.59;;;21.69;69.45
13080;BME280;6606;49.154;9.280;2023-04-23T11:12:34;98845.56;;;22.09;61.23
13080;BME280;6606;49.154;9.280;2023-04-23T11:15:18;98841.38;;;21.74;75.04
13080;BME280;6606;49.154;9.280;2023-04-23T11:18:00;98833.59;;;22.12;61.88
13080;BME280;6606;49.154;9.280;2023-04-23T11:20:45;98833.63;;;21.87;62.80
13080;BME280;6606;49.154;9.280;2023-04-23T11:23:29;98828.78;;;22.55;56.87
13080;BME280;6606;49.154;9.280;2023-04-23T11:26:14;98823.75;;;22.83;56.21
13080;BME280;6606;49.154;9.280;2023-04-23T11:28:59;98819.44;;;22.10;56.50
13080;BME280;6606;49.154;9.280;2023-04-23T11:31:42;98820.84;;;21.65;60.54
13080;BME280;6606;49.154;9.280;2023-04-23T11:34:24;98818.78;;;22.00;60.42
13080;BME280;6606;49.154;9.280;2023-04-23T11:37:08;98810.13;;;22.76;56.81
13080;BME280;6606;49.154;9.280;2023-04-23T11:39:50;98810.94;;;22.77;49.36
13080;BME280;6606;49.154;9.280;2023-04-23T11:42:40;98810.06;;;22.85;50.63
13080;BME280;6606;49.154;9.280;2023-04-23T11:45:24;98803.38;;;23.35;51.48
13080;BME280;6606;49.154;9.280;2023-04-23T11:48:06;98803.47;;;23.87;54.45
13080;BME280;6606;49.154;9.280;2023-04-23T11:50:48;98788.03;;;23.50;55.85
13080;BME280;6606;49.154;9.280;2023-04-23T11:53:29;98784.97;;;23.07;57.61
13080;BME280;6606;49.154;9.280;2023-04-23T11:56:11;98780.66;;;22.58;54.33
13080;BME280;6606;49.154;9.280;2023-04-23T11:58:57;98783.00;;;22.93;55.36
13080;BME280;6606;49.154;9.280;2023-04-23T12:01:46;98776.00;;;22.75;54.14
13080;BME280;6606;49.154;9.280;2023-04-23T12:04:29;98767.66;;;23.16;57.37
13080;BME280;6606;49.154;9.280;2023-04-23T12:07:11;98768.34;;;23.94;54.18
13080;BME280;6606;49.154;9.280;2023-04-23T12:09:57;98760.91;;;24.26;47.02
13080;BME280;6606;49.154;9.280;2023-04-23T12:12:40;98758.97;;;23.29;49.04
13080;BME280;6606;49.154;9.280;2023-04-23T12:15:22;98760.41;;;22.86;48.46
13080;BME280;6606;49.154;9.280;2023-04-23T12:18:11;98751.69;;;22.75;48.90
13080;BME280;6606;49.154;9.280;2023-04-23T12:20:53;98743.03;;;23.11;46.21
13080;BME280;6606;49.154;9.280;2023-04-23T12:27:00;98728.31;;;24.04;50.09
13080;BME280;6606;49.154;9.280;2023-04-23T12:29:42;98713.59;;;23.39;49.92
13080;BME280;6606;49.154;9.280;2023-04-23T12:32:23;98713.00;;;23.06;47.89
13080;BME280;6606;49.154;9.280;2023-04-23T12:35:08;98716.13;;;23.70;47.69
13080;BME280;6606;49.154;9.280;2023-04-23T12:37:50;98713.03;;;23.82;49.05
13080;BME280;6606;49.154;9.280;2023-04-23T12:40:32;98701.00;;;23.09;48.07
13080;BME280;6606;49.154;9.280;2023-04-23T12:43:14;98687.44;;;23.99;46.07
13080;BME280;6606;49.154;9.280;2023-04-23T12:45:56;98687.81;;;23.81;45.90
13080;BME280;6606;49.154;9.280;2023-04-23T12:48:38;98682.69;;;23.72;47.08
13080;BME280;6606;49.154;9.280;2023-04-23T12:51:21;98678.47;;;23.84;46.04
13080;BME280;6606;49.154;9.280;2023-04-23T12:54:03;98675.84;;;23.61;50.14
13080;BME280;6606;49.154;9.280;2023-04-23T12:56:44;98672.00;;;23.17;48.11
13080;BME280;6606;49.154;9.280;2023-04-23T12:59:26;98661.81;;;23.57;46.05
13080;BME280;6606;49.154;9.280;2023-04-23T13:02:08;98657.34;;;23.64;45.69
13080;BME280;6606;49.154;9.280;2023-04-23T13:04:50;98652.91;;;23.72;45.54
13080;BME280;6606;49.154;9.280;2023-04-23T13:07:35;98647.88;;;23.98;40.30
13080;BME280;6606;49.154;9.280;2023-04-23T13:10:17;98642.41;;;23.39;41.92
13080;BME280;6606;49.154;9.280;2023-04-23T13:12:59;98637.25;;;23.82;42.45
13080;BME280;6606;49.154;9.280;2023-04-23T13:15:41;98638.88;;;24.12;40.62
13080;BME280;6606;49.154;9.280;2023-04-23T13:18:23;98627.97;;;24.06;43.91
13080;BME280;6606;49.154;9.280;2023-04-23T13:21:05;98611.06;;;23.30;41.43
13080;BME280;6606;49.154;9.280;2023-04-23T13:23:48;98611.50;;;22.34;48.67
13080;BME280;6606;49.154;9.280;2023-04-23T13:26:30;98597.44;;;23.08;49.25
13080;BME280;6606;49.154;9.280;2023-04-23T13:29:12;98590.84;;;23.70;41.86
13080;BME280;6606;49.154;9.280;2023-04-23T13:31:55;98592.72;;;23.69;40.14
13080;BME280;6606;49.154;9.280;2023-04-23T13:34:37;98595.91;;;23.73;38.71
13080;BME280;6606;49.154;9.280;2023-04-23T13:37:19;98585.72;;;23.75;40.01
13080;BME280;6606;49.154;9.280;2023-04-23T13:40:02;98577.06;;;23.80;40.38
13080;BME280;6606;49.154;9.280;2023-04-23T13:42:45;98560.63;;;24.39;38.35
13080;BME280;6606;49.154;9.280;2023-04-23T13:45:28;98564.06;;;23.90;40.15
13080;BME280;6606;49.154;9.280;2023-04-23T13:48:10;98559.25;;;24.07;41.86
13080;BME280;6606;49.154;9.280;2023-04-23T13:50:52;98554.97;;;24.77;38.36
13080;BME280;6606;49.154;9.280;2023-04-23T13:53:34;98554.38;;;24.39;37.72
13080;BME280;6606;49.154;9.280;2023-04-23T13:56:17;98559.19;;;24.00;39.92
13080;BME280;6606;49.154;9.280;2023-04-23T13:58:59;98553.91;;;23.77;46.40
13080;BME280;6606;49.154;9.280;2023-04-23T14:01:46;98542.88;;;23.79;40.13
13080;BME280;6606;49.154;9.280;2023-04-23T14:04:29;98539.81;;;23.52;40.71
13080;BME280;6606;49.154;9.280;2023-04-23T14:07:11;98534.31;;;23.31;41.78
13080;BME280;6606;49.154;9.280;2023-04-23T14:09:53;98536.56;;;23.12;41.43
13080;BME280;6606;49.154;9.280;2023-04-23T14:12:36;98540.03;;;22.68;43.22
13080;BME280;6606;49.154;9.280;2023-04-23T14:15:18;98526.34;;;22.85;43.32
13080;BME280;6606;49.154;9.280;2023-04-23T14:18:00;98510.94;;;23.08;45.31
13080;BME280;6606;49.154;9.280;2023-04-23T14:20:42;98509.41;;;22.91;45.34
13080;BME280;6606;49.154;9.280;2023-04-23T14:23:42;98511.69;;;23.32;43.87
13080;BME280;6606;49.154;9.280;2023-04-23T14:26:27;98506.97;;;24.06;41.91
13080;BME280;6606;49.154;9.280;2023-04-23T14:29:22;98498.72;;;23.93;40.54
13080;BME280;6606;49.154;9.280;2023-04-23T14:32:05;98502.28;;;23.79;40.18